Time;durP1;ratioP1;P1;durP2;ratioP2;P2;SDS_P1;SDS_P2;PMS_P1;PMS_P2;Temp;Humidity;BMP_temperature;BMP_pressure;BME280_temperature;BME280_humidity;BME280_pressure;Samples;Min_cycle;Max_cycle;Signal;HPM_P1;HPM_P2
2021/03/21 01:17:29;;;;;;;7.10;6.60;;;;;;;-1.20;62.66;98588.63;4996595;28;20247;-69
2021/03/21 01:19:57;;;;;;;6.57;6.07;;;;;;;-1.17;62.59;98583.28;5015387;28;20209;-68
2021/03/21 01:22:24;;;;;;;6.77;6.17;;;;;;;-1.06;61.91;98579.28;5012727;28;20200;-69
2021/03/21 01:24:50;;;;;;;7.07;6.47;;;;;;;-1.02;61.09;98580.81;5009678;28;20251;-68
2021/03/21 01:27:17;;;;;;;7.57;6.97;;;;;;;-0.99;61.83;98578.06;5008133;28;20221;-68
2021/03/21 01:29:44;;;;;;;6.77;6.30;;;;;;;-0.91;60.74;98573.34;5005402;28;20220;-68
2021/03/21 01:32:11;;;;;;;6.90;6.37;;;;;;;-0.96;61.01;98575.31;5006826;28;20211;-69
2021/03/21 01:34:39;;;;;;;7.00;6.17;;;;;;;-0.98;61.00;98568.50;5014092;28;20306;-68
2021/03/21 01:37:06;;;;;;;6.70;6.10;;;;;;;-0.98;62.27;98561.53;5011136;28;20235;-68
2021/03/21 01:39:34;;;;;;;7.07;6.47;;;;;;;-0.92;61.42;98556.06;5015349;28;20223;-68
2021/03/21 01:42:04;;;;;;;7.90;5.97;;;;;;;-0.86;61.66;98552.28;5006655;28;20205;-69
2021/03/21 01:44:31;;;;;;;6.03;5.53;;;;;;;-0.93;62.34;98548.31;5015575;28;20961;-67
2021/03/21 01:47:17;;;;;;;6.83;6.33;;;;;;;-0.97;62.04;98537.19;5012156;28;20299;-68
2021/03/21 01:49:47;;;;;;;6.13;5.70;;;;;;;-0.94;62.31;98534.47;5006660;28;20303;-68
2021/03/21 01:52:27;;;;;;;6.87;6.27;;;;;;;-0.78;61.18;98525.88;5014033;28;20212;-68
2021/03/21 01:54:54;;;;;;;6.63;6.17;;;;;;;-0.77;61.63;98522.34;5015112;28;20223;-68
2021/03/21 01:57:21;;;;;;;6.77;6.27;;;;;;;-0.77;61.62;98517.13;5009605;28;20615;-69
2021/03/21 01:59:48;;;;;;;6.67;6.03;;;;;;;-0.81;60.49;98515.63;5009578;28;20210;-67
2021/03/21 02:02:16;;;;;;;6.60;6.10;;;;;;;-0.85;60.05;98519.28;5011118;28;20213;-68
2021/03/21 02:04:43;;;;;;;6.13;5.60;;;;;;;-0.74;58.49;98516.97;5012985;28;20228;-68
2021/03/21 02:07:21;;;;;;;6.07;5.47;;;;;;;-0.74;59.01;98509.16;5012951;28;20224;-67
2021/03/21 02:09:57;;;;;;;6.47;5.90;;;;;;;-0.75;59.49;98502.28;5014694;28;20211;-69
2021/03/21 02:12:40;;;;;;;6.40;5.80;;;;;;;-0.67;59.61;98489.69;5014467;28;20830;-68
2021/03/21 02:15:12;;;;;;;6.03;5.53;;;;;;;-0.63;59.16;98491.22;5012201;28;20266;-68
2021/03/21 02:18:01;;;;;;;6.13;5.53;;;;;;;-0.67;58.60;98479.28;4908332;29;20208;-67
2021/03/21 02:21:03;;;;;;;6.30;5.70;;;;;;;-0.52;59.32;98484.63;4920153;29;20924;-68
2021/03/21 02:23:51;;;;;;;6.50;5.90;;;;;;;-0.73;59.74;98480.47;4909642;29;20218;-70
2021/03/21 03:08:51;;;;;;;5.33;4.87;;;;;;;-0.76;59.91;98433.78;5006428;28;20224;-67
2021/03/21 03:11:20;;;;;;;6.20;5.60;;;;;;;-0.73;59.09;98431.00;5005719;28;20212;-69
2021/03/21 03:13:50;;;;;;;5.43;5.03;;;;;;;-0.70;59.51;98423.97;5008266;28;20776;-68
2021/03/21 03:16:26;;;;;;;5.40;4.90;;;;;;;-0.67;58.67;98432.44;5003019;28;20633;-68
2021/03/21 03:18:59;;;;;;;4.90;4.60;;;;;;;-0.69;59.22;98426.47;5004223;28;20216;-68
2021/03/21 03:21:30;;;;;;;5.10;4.63;;;;;;;-0.69;58.84;98428.25;5004040;28;20228;-69
2021/03/21 03:24:02;;;;;;;5.17;4.67;;;;;;;-0.71;59.25;98424.88;5009025;28;20225;-69
2021/03/21 03:26:41;;;;;;;4.77;4.47;;;;;;;-0.67;58.82;98423.78;5008284;28;20216;-68
2021/03/21 03:29:27;;;;;;;5.37;4.97;;;;;;;-0.65;58.70;98412.34;5008410;28;21017;-68
2021/03/21 03:31:57;;;;;;;5.30;4.80;;;;;;;-0.64;59.76;98408.00;5012473;28;20291;-69
2021/03/21 03:34:30;;;;;;;5.47;5.07;;;;;;;-0.65;58.78;98395.91;5005409;28;20229;-69
2021/03/21 03:36:58;;;;;;;6.03;5.47;;;;;;;-0.65;59.09;98395.91;5005396;28;20207;-68
2021/03/21 03:39:26;;;;;;;4.90;4.60;;;;;;;-0.65;58.82;98391.53;5007299;28;20207;-68
2021/03/21 03:42:01;;;;;;;4.93;4.63;;;;;;;-0.60;59.06;98389.50;5012116;28;20288;-68
2021/03/21 03:44:35;;;;;;;5.00;4.53;;;;;;;-0.61;58.97;98389.63;5004008;28;20785;-68
2021/03/21 03:47:05;;;;;;;4.63;4.23;;;;;;;-0.58;59.09;98381.63;5008653;28;20208;-69
2021/03/21 03:49:43;;;;;;;5.37;4.97;;;;;;;-0.60;58.63;98379.09;5009403;28;20204;-67
2021/03/21 03:52:33;;;;;;;5.63;4.70;;;;;;;-0.61;58.16;98390.44;5012475;28;20207;-69
2021/03/21 03:55:05;;;;;;;4.67;4.27;;;;;;;-0.53;59.05;98384.00;5014861;28;20223;-66
2021/03/21 03:57:36;;;;;;;4.60;4.30;;;;;;;-0.54;58.57;98382.31;5004072;28;20219;-67
2021/03/21 04:00:12;;;;;;;4.97;4.67;;;;;;;-0.48;58.82;98371.56;5007631;28;20205;-68
2021/03/21 04:02:43;;;;;;;5.17;4.77;;;;;;;-0.47;58.43;98374.06;5005421;28;20698;-69
2021/03/21 04:05:18;;;;;;;4.43;4.13;;;;;;;-0.32;57.80;98374.16;5005273;28;20224;-67
2021/03/21 04:07:51;;;;;;;4.57;4.27;;;;;;;-0.47;58.70;98371.47;5010593;28;20221;-68
2021/03/21 04:10:22;;;;;;;6.40;4.37;;;;;;;-0.48;58.23;98369.78;5006398;28;20200;-66
2021/03/21 04:31:46;;;;;;;4.57;4.27;;;;;;;-0.42;58.75;98344.31;5003748;28;20195;-69
2021/03/21 04:34:15;;;;;;;4.50;4.17;;;;;;;-0.38;58.04;98346.69;5009619;28;20625;-68
2021/03/21 04:36:45;;;;;;;5.00;4.70;;;;;;;-0.40;58.23;98335.50;5007050;28;20243;-69
2021/03/21 04:39:14;;;;;;;4.63;4.33;;;;;;;-0.40;57.85;98343.31;5005950;28;20492;-68
2021/03/21 04:41:44;;;;;;;4.33;3.93;;;;;;;-0.42;57.57;98333.91;5006416;28;20727;-69
2021/03/21 04:44:14;;;;;;;5.47;4.20;;;;;;;-0.35;58.50;98336.09;5009943;28;20227;-68
2021/03/21 04:46:44;;;;;;;4.57;4.27;;;;;;;-0.36;57.82;98338.78;5013872;28;20233;-68
2021/03/21 04:49:12;;;;;;;4.90;4.50;;;;;;;-0.40;58.31;98332.06;5008634;28;20216;-71
2021/03/21 04:51:42;;;;;;;4.87;4.53;;;;;;;-0.28;57.32;98333.13;5013931;28;20205;-69
2021/03/21 04:54:16;;;;;;;4.37;3.97;;;;;;;-0.23;57.35;98339.75;5018107;28;20216;-68
2021/03/21 04:56:46;;;;;;;4.90;4.43;;;;;;;-0.37;58.28;98340.53;5011844;28;20698;-68
2021/03/21 04:59:15;;;;;;;4.13;3.83;;;;;;;-0.38;57.43;98344.06;5009797;28;20779;-69
2021/03/21 05:01:55;;;;;;;4.30;4.10;;;;;;;-0.34;58.14;98348.19;5005194;28;20216;-68
2021/03/21 05:04:25;;;;;;;4.63;4.23;;;;;;;-0.32;58.11;98346.31;5004301;28;20798;-69
2021/03/21 05:06:56;;;;;;;5.13;4.77;;;;;;;-0.39;57.36;98352.81;5004948;28;20220;-69
2021/03/21 05:09:24;;;;;;;4.20;4.00;;;;;;;-0.24;57.04;98353.72;5009059;28;20244;-68
2021/03/21 05:11:56;;;;;;;5.40;4.33;;;;;;;-0.28;58.11;98349.63;5008643;28;20209;-68
2021/03/21 05:14:29;;;;;;;4.43;4.13;;;;;;;-0.20;56.96;98346.56;5011968;28;20255;-69
2021/03/21 05:17:05;;;;;;;4.63;4.23;;;;;;;-0.21;57.50;98343.13;5009918;28;20212;-70
2021/03/21 05:19:42;;;;;;;4.30;4.00;;;;;;;-0.07;57.52;98349.28;5010130;28;20293;-72
2021/03/21 05:22:16;;;;;;;5.03;4.73;;;;;;;-0.18;57.52;98348.16;5015333;28;20208;-72
2021/03/21 05:24:48;;;;;;;5.10;4.47;;;;;;;-0.10;57.59;98349.47;5005330;28;20354;-70
2021/03/21 05:27:17;;;;;;;4.67;4.27;;;;;;;-0.13;57.31;98341.84;5007865;28;20317;-71
2021/03/21 05:29:49;;;;;;;4.23;3.93;;;;;;;-0.07;56.75;98334.53;5005738;28;20205;-72
2021/03/21 05:32:18;;;;;;;4.33;4.03;;;;;;;-0.04;56.77;98331.72;5002963;28;20208;-68
2021/03/21 05:34:47;;;;;;;5.00;4.43;;;;;;;-0.04;57.49;98334.34;5009875;28;20712;-71
2021/03/21 05:37:25;;;;;;;4.60;4.30;;;;;;;-0.01;57.06;98336.75;5009386;28;20201;-71
2021/03/21 05:39:58;;;;;;;5.07;4.37;;;;;;;0.03;56.13;98334.84;5011278;28;20201;-69
2021/03/21 05:42:59;;;;;;;4.10;3.83;;;;;;;0.10;56.11;98328.34;5006768;28;20204;-70
2021/03/21 05:45:50;;;;;;;4.90;4.47;;;;;;;0.19;56.58;98316.53;5009034;28;20487;-71
2021/03/21 05:48:56;;;;;;;4.30;3.93;;;;;;;0.18;56.42;98307.00;5007172;28;20601;-70
2021/03/21 05:52:02;;;;;;;3.57;3.37;;;;;;;0.08;56.44;98301.53;5009208;28;20215;-70
2021/03/21 05:54:59;;;;;;;4.50;4.17;;;;;;;0.10;56.45;98299.66;5006027;28;20624;-71
2021/03/21 05:57:59;;;;;;;4.50;4.17;;;;;;;0.07;56.80;98293.78;5003084;28;20268;-70
2021/03/21 06:00:49;;;;;;;4.40;4.03;;;;;;;0.03;57.26;98294.88;5011039;28;20197;-70
2021/03/21 06:03:36;;;;;;;5.00;4.30;;;;;;;0.04;56.74;98294.81;5002570;28;20756;-70
2021/03/21 06:06:38;;;;;;;4.43;4.07;;;;;;;0.05;57.17;98287.81;5005385;28;20878;-69
2021/03/21 06:09:21;;;;;;;3.93;3.73;;;;;;;0.21;56.51;98274.72;5007874;28;20585;-71
2021/03/21 06:12:08;;;;;;;4.73;4.23;;;;;;;0.19;56.11;98280.03;5010040;28;20205;-71
2021/03/21 06:15:10;;;;;;;5.77;4.53;;;;;;;0.33;55.72;98280.97;4998151;28;20274;-70
2021/03/21 06:17:56;;;;;;;4.83;4.43;;;;;;;0.33;56.74;98278.38;5003411;28;20578;-70
2021/03/21 06:20:34;;;;;;;5.10;4.33;;;;;;;0.24;57.08;98284.97;5011218;28;20204;-68
2021/03/21 06:23:37;;;;;;;4.90;4.53;;;;;;;0.32;57.04;98292.34;5011292;28;20279;-65
2021/03/21 06:26:08;;;;;;;4.97;4.47;;;;;;;0.28;57.29;98287.31;5006053;28;20219;-68
2021/03/21 06:28:49;;;;;;;5.67;5.17;;;;;;;0.33;58.01;98289.63;5010767;28;20537;-69
2021/03/21 06:31:35;;;;;;;5.27;4.87;;;;;;;0.42;58.41;98302.13;5005878;28;20201;-68
2021/03/21 06:34:12;;;;;;;6.27;5.73;;;;;;;0.43;58.89;98295.13;5003559;28;20229;-68
2021/03/21 06:36:41;;;;;;;7.93;6.50;;;;;;;0.45;59.40;98292.44;5001204;28;20212;-68
2021/03/21 06:39:39;;;;;;;24.10;21.80;;;;;;;0.34;59.27;98291.28;5001371;28;20205;-69
2021/03/21 06:42:18;;;;;;;7.03;6.43;;;;;;;0.39;59.35;98286.66;5006796;28;20615;-69
2021/03/21 06:45:18;;;;;;;10.20;8.13;;;;;;;0.50;58.82;98283.38;5007912;28;20728;-68
2021/03/21 06:48:00;;;;;;;6.60;6.10;;;;;;;0.41;58.80;98283.94;5004893;28;20616;-68
2021/03/21 06:50:46;;;;;;;6.63;6.03;;;;;;;0.61;58.90;98280.13;5005381;28;20223;-69
2021/03/21 06:53:20;;;;;;;7.97;7.33;;;;;;;0.60;59.10;98278.47;5009198;28;20209;-67
2021/03/21 06:55:53;;;;;;;20.13;12.23;;;;;;;0.71;59.13;98267.38;5019086;28;20579;-69
2021/03/21 06:58:45;;;;;;;33.23;18.57;;;;;;;0.80;58.34;98260.75;5007622;28;20210;-69
2021/03/21 07:01:28;;;;;;;82.90;37.00;;;;;;;0.60;59.23;98259.38;5010885;28;20619;-71
2021/03/21 07:04:31;;;;;;;11.87;9.13;;;;;;;0.59;59.55;98263.75;5011035;28;20223;-70
2021/03/21 07:07:34;;;;;;;35.93;18.83;;;;;;;0.63;60.47;98265.22;4995205;28;20235;-71
2021/03/21 07:10:53;;;;;;;9.17;8.20;;;;;;;0.58;61.58;98254.25;4994586;28;20200;-69
2021/03/21 07:14:11;;;;;;;8.53;7.13;;;;;;;0.70;62.00;98244.81;4937054;28;20223;-69
2021/03/21 07:17:02;;;;;;;7.73;7.03;;;;;;;0.75;62.21;98240.16;4944008;28;20781;-71
2021/03/21 07:20:17;;;;;;;11.17;10.13;;;;;;;0.93;62.46;98234.69;5000703;28;20236;-71
2021/03/21 07:23:22;;;;;;;8.10;7.33;;;;;;;0.90;62.63;98229.69;5006181;28;20212;-69
2021/03/21 07:26:01;;;;;;;9.03;8.17;;;;;;;1.10;62.20;98229.25;5003994;28;20214;-70
2021/03/21 07:28:55;;;;;;;8.20;7.23;;;;;;;1.23;62.70;98220.63;5002404;28;20240;-70
2021/03/21 07:31:33;;;;;;;9.50;8.60;;;;;;;1.39;62.17;98220.47;5002536;28;20208;-71
2021/03/21 07:34:19;;;;;;;7.70;6.80;;;;;;;1.43;62.34;98212.34;5004335;28;20861;-69
2021/03/21 07:36:51;;;;;;;8.37;7.63;;;;;;;1.27;61.90;98209.91;5001997;28;20592;-72
2021/03/21 07:39:32;;;;;;;8.17;7.37;;;;;;;1.39;61.73;98204.81;5004287;28;20581;-71
2021/03/21 07:42:08;;;;;;;8.67;7.87;;;;;;;1.39;61.61;98200.44;5005606;28;20200;-69
2021/03/21 07:44:47;;;;;;;8.90;8.00;;;;;;;1.44;62.09;98195.72;5004649;28;20251;-72
2021/03/21 07:47:26;;;;;;;8.63;7.93;;;;;;;1.37;62.59;98193.63;5006578;28;20767;-73
2021/03/21 07:50:06;;;;;;;8.87;8.07;;;;;;;1.43;62.51;98190.59;5008179;28;20685;-73
2021/03/21 07:52:48;;;;;;;8.13;7.40;;;;;;;1.22;62.50;98190.22;5005137;28;20600;-72
2021/03/21 07:55:19;;;;;;;8.47;7.20;;;;;;;1.27;62.92;98186.41;5007084;28;20727;-73
2021/03/21 07:57:59;;;;;;;9.53;8.40;;;;;;;1.22;62.78;98187.63;5004665;28;20205;-71
2021/03/21 08:00:25;;;;;;;8.53;7.73;;;;;;;1.24;62.98;98181.38;5007205;28;20227;-71
2021/03/21 08:02:56;;;;;;;8.50;7.07;;;;;;;1.32;63.09;98187.88;5008001;28;20204;-72
2021/03/21 08:05:27;;;;;;;8.70;7.97;;;;;;;1.47;62.70;98181.63;5013573;28;20742;-70
2021/03/21 08:07:55;;;;;;;8.97;8.17;;;;;;;1.39;63.44;98192.59;5016555;28;20225;-72
2021/03/21 08:10:26;;;;;;;8.17;7.47;;;;;;;1.38;63.46;98196.16;5006849;28;20527;-71
2021/03/21 08:12:57;;;;;;;10.00;8.73;;;;;;;1.43;63.22;98190.59;5013677;28;20232;-72
2021/03/21 08:15:25;;;;;;;9.37;8.47;;;;;;;1.46;63.01;98189.56;5006308;28;20220;-72
2021/03/21 08:17:54;;;;;;;10.43;8.43;;;;;;;1.44;62.87;98182.69;5008158;28;20201;-70
2021/03/21 08:20:26;;;;;;;9.27;8.47;;;;;;;1.59;62.50;98178.22;5006565;28;20252;-71
2021/03/21 08:22:58;;;;;;;8.80;8.00;;;;;;;1.69;62.76;98170.56;5008702;28;20209;-66
2021/03/21 08:25:29;;;;;;;9.07;8.23;;;;;;;1.80;62.99;98169.84;5006145;28;20229;-68
2021/03/21 08:27:57;;;;;;;8.90;7.77;;;;;;;1.88;62.85;98164.09;5005770;28;20664;-67
2021/03/21 08:30:26;;;;;;;10.33;9.17;;;;;;;1.92;62.73;98175.19;5007027;28;20233;-68
2021/03/21 08:33:11;;;;;;;9.40;8.43;;;;;;;1.94;62.20;98163.69;5001149;28;20212;-69
2021/03/21 08:35:40;;;;;;;9.40;8.37;;;;;;;1.84;60.62;98162.66;5006124;28;20220;-72
2021/03/21 08:38:17;;;;;;;7.77;6.97;;;;;;;1.76;61.53;98164.94;5005847;28;20494;-71
2021/03/21 08:40:47;;;;;;;8.93;8.03;;;;;;;1.77;60.92;98164.84;5005795;28;20685;-70
2021/03/21 08:43:23;;;;;;;8.17;7.37;;;;;;;1.73;60.99;98165.97;5004679;28;20283;-71
2021/03/21 08:46:07;;;;;;;9.40;8.13;;;;;;;1.84;60.41;98175.72;5006442;28;20239;-70
2021/03/21 08:48:36;;;;;;;9.03;8.13;;;;;;;1.74;61.31;98178.09;5006005;28;20232;-70
2021/03/21 08:51:29;;;;;;;8.47;7.67;;;;;;;1.69;61.57;98186.25;5004202;28;20205;-70
2021/03/21 08:54:01;;;;;;;9.90;7.30;;;;;;;1.76;60.65;98188.47;5008309;28;20228;-69
2021/03/21 08:56:30;;;;;;;7.77;7.07;;;;;;;1.80;60.92;98184.72;5013052;28;20201;-69
2021/03/21 08:59:26;;;;;;;8.50;7.60;;;;;;;1.89;60.76;98197.16;5006918;28;20376;-69
2021/03/21 09:02:02;;;;;;;8.83;7.90;;;;;;;2.12;60.21;98199.97;5000535;28;20416;-70
2021/03/21 09:04:29;;;;;;;8.00;7.30;;;;;;;2.03;60.01;98197.03;5017380;28;20228;-69
2021/03/21 09:07:13;;;;;;;7.27;6.47;;;;;;;2.12;60.11;98202.59;5005379;28;20209;-71
2021/03/21 09:09:41;;;;;;;6.77;6.17;;;;;;;2.13;60.91;98191.19;5005152;28;20213;-67
2021/03/21 09:12:30;;;;;;;8.27;7.17;;;;;;;2.31;59.90;98200.38;5005118;28;20201;-69
2021/03/21 09:15:32;;;;;;;7.97;6.80;;;;;;;2.50;59.09;98201.72;5004176;28;20728;-69
2021/03/21 09:18:40;;;;;;;7.97;7.17;;;;;;;2.43;59.43;98200.44;4992062;28;20289;-69
2021/03/21 09:21:18;;;;;;;8.03;7.30;;;;;;;2.30;61.16;98190.03;4999900;28;20735;-71
2021/03/21 09:23:57;;;;;;;7.73;7.03;;;;;;;2.31;62.88;98196.94;5008747;28;20240;-72
2021/03/21 09:26:32;;;;;;;9.03;7.30;;;;;;;2.03;64.44;98201.44;5007851;28;20208;-72
2021/03/21 09:29:22;;;;;;;8.60;7.70;;;;;;;2.30;64.79;98190.03;5007454;28;20235;-70
2021/03/21 09:31:51;;;;;;;7.67;6.97;;;;;;;2.41;64.71;98181.41;5002648;28;20244;-73
2021/03/21 09:34:24;;;;;;;8.33;7.47;;;;;;;2.49;66.58;98184.34;5004949;28;20259;-69
2021/03/21 09:36:56;;;;;;;9.77;8.87;;;;;;;2.30;70.33;98190.84;5006459;28;20208;-72
2021/03/21 09:39:29;;;;;;;12.87;8.60;;;;;;;2.12;72.36;98186.91;5007583;28;20291;-72
2021/03/21 09:41:58;;;;;;;9.40;8.50;;;;;;;2.14;73.26;98183.22;5005020;28;20213;-72
2021/03/21 09:44:39;;;;;;;9.93;9.00;;;;;;;1.88;75.98;98185.84;5004339;28;21218;-72
2021/03/21 09:47:19;;;;;;;11.83;8.90;;;;;;;1.76;76.96;98180.63;5003560;28;20235;-72
2021/03/21 09:49:53;;;;;;;9.37;8.47;;;;;;;1.73;77.91;98176.44;5003199;28;20207;-73
2021/03/21 09:52:29;;;;;;;10.23;9.23;;;;;;;1.83;78.72;98171.44;5005644;28;20208;-72
2021/03/21 09:55:06;;;;;;;10.20;9.10;;;;;;;1.88;78.31;98177.19;5007390;28;20503;-72
2021/03/21 09:58:19;;;;;;;9.70;8.70;;;;;;;1.87;79.33;98178.13;5008575;28;20212;-73
2021/03/21 10:00:52;;;;;;;10.30;9.30;;;;;;;1.85;79.12;98177.38;4962747;28;20227;-73
2021/03/21 10:03:25;;;;;;;9.60;8.70;;;;;;;1.66;80.31;98183.84;4966527;28;20245;-70
2021/03/21 10:05:56;;;;;;;10.03;8.03;;;;;;;1.71;81.17;98173.94;4984359;28;20230;-71
2021/03/21 10:08:40;;;;;;;9.70;8.70;;;;;;;1.67;81.77;98177.66;5001644;28;20225;-70
2021/03/21 10:11:09;;;;;;;10.67;9.07;;;;;;;1.70;82.64;98174.03;4997422;28;20385;-71
2021/03/21 10:13:39;;;;;;;10.40;9.03;;;;;;;1.43;83.83;98170.56;5000171;28;20241;-70
2021/03/21 10:16:29;;;;;;;11.27;8.97;;;;;;;1.38;84.77;98162.19;4999784;28;20216;-71
2021/03/21 10:18:58;;;;;;;10.80;9.67;;;;;;;1.31;86.05;98171.34;4998716;28;20538;-71
2021/03/21 10:21:34;;;;;;;10.83;9.87;;;;;;;1.56;86.21;98170.59;4988512;28;20209;-70
2021/03/21 10:24:37;;;;;;;12.73;10.50;;;;;;;1.70;86.45;98164.41;4998759;28;20604;-69
2021/03/21 10:27:43;;;;;;;13.10;10.37;;;;;;;1.68;86.38;98170.69;4998536;28;20204;-69
2021/03/21 10:30:21;;;;;;;10.50;9.43;;;;;;;1.65;85.88;98168.28;5085435;27;21263;-71
2021/03/21 10:32:50;;;;;;;12.73;11.37;;;;;;;1.73;87.12;98166.84;5065493;28;20209;-71
2021/03/21 10:35:53;;;;;;;11.63;10.43;;;;;;;1.76;85.83;98165.78;5076478;28;20342;-71
2021/03/21 10:38:49;;;;;;;12.00;10.80;;;;;;;1.72;85.69;98159.94;5065687;28;20212;-70
2021/03/21 10:41:51;;;;;;;12.13;10.73;;;;;;;1.64;86.69;98150.94;5063981;28;20215;-70
2021/03/21 10:44:19;;;;;;;11.27;10.07;;;;;;;1.70;86.33;98148.72;5063715;28;20216;-70
2021/03/21 10:46:52;;;;;;;12.50;11.17;;;;;;;1.68;86.37;98145.38;5060534;28;20260;-71
2021/03/21 10:49:48;;;;;;;12.97;10.90;;;;;;;1.75;84.93;98145.81;5073675;28;20233;-71
2021/03/21 10:52:28;;;;;;;12.17;10.73;;;;;;;1.80;84.94;98145.50;5069985;28;20241;-70
2021/03/21 10:55:29;;;;;;;11.83;10.63;;;;;;;1.73;84.85;98139.84;5064214;28;20759;-71
2021/03/21 10:58:13;;;;;;;14.13;12.17;;;;;;;1.81;84.11;98137.53;5058670;28;20305;-71
2021/03/21 11:00:40;;;;;;;12.77;11.47;;;;;;;1.91;83.89;98135.16;5057991;28;20221;-71
2021/03/21 11:03:16;;;;;;;13.30;11.60;;;;;;;1.98;83.76;98132.94;5070181;28;20558;-70
2021/03/21 11:05:44;;;;;;;12.57;11.37;;;;;;;2.10;82.29;98121.63;5070629;28;20545;-70
2021/03/21 11:08:26;;;;;;;13.23;11.93;;;;;;;2.23;82.75;98120.75;5073478;28;20685;-70
2021/03/21 11:10:54;;;;;;;13.00;11.70;;;;;;;2.29;82.22;98117.75;5076533;28;20208;-70
2021/03/21 11:13:30;;;;;;;14.20;12.10;;;;;;;2.36;82.12;98112.88;5070242;28;20255;-71
2021/03/21 11:15:58;;;;;;;12.50;11.20;;;;;;;2.49;81.71;98115.47;5064011;28;20696;-70
2021/03/21 11:18:28;;;;;;;12.50;11.30;;;;;;;2.46;80.47;98114.75;5060533;28;20199;-70
2021/03/21 11:21:04;;;;;;;12.67;11.17;;;;;;;2.49;80.66;98111.09;5068415;28;20210;-70
2021/03/21 11:23:42;;;;;;;12.80;11.50;;;;;;;2.37;80.18;98111.94;5067934;28;20199;-71
2021/03/21 11:26:19;;;;;;;11.93;10.77;;;;;;;2.61;79.56;98109.34;5062620;28;20242;-70
2021/03/21 11:28:46;;;;;;;12.37;11.17;;;;;;;2.86;77.97;98129.38;5066422;28;20759;-71
2021/03/21 11:31:17;;;;;;;11.73;10.53;;;;;;;3.13;76.57;98109.13;5068542;28;20206;-70
2021/03/21 11:33:45;;;;;;;11.00;10.00;;;;;;;3.21;75.65;98098.91;5069648;28;20206;-70
2021/03/21 11:36:25;;;;;;;11.73;10.50;;;;;;;3.31;75.16;98101.66;5064596;28;20207;-71
2021/03/21 11:38:53;;;;;;;11.03;9.93;;;;;;;3.19;74.75;98098.19;5071749;28;20218;-71
2021/03/21 11:41:37;;;;;;;11.47;10.37;;;;;;;3.12;75.37;98102.22;5057045;28;20213;-70
2021/03/21 11:44:14;;;;;;;11.07;9.77;;;;;;;3.53;75.34;98089.56;5049653;28;20203;-71
2021/03/21 11:46:41;;;;;;;15.10;9.90;;;;;;;3.78;72.96;98090.31;5058285;28;20371;-71
2021/03/21 11:49:10;;;;;;;10.67;9.50;;;;;;;3.76;72.67;98077.28;5050366;28;20227;-70
2021/03/21 11:51:39;;;;;;;11.20;10.10;;;;;;;3.59;72.46;98086.47;5052160;28;20321;-71
2021/03/21 11:54:06;;;;;;;9.93;8.93;;;;;;;3.31;73.46;98078.91;5057602;28;20223;-70
2021/03/21 11:56:46;;;;;;;9.97;8.97;;;;;;;3.41;74.01;98076.44;5054382;28;20202;-70
2021/03/21 11:59:14;;;;;;;9.93;8.93;;;;;;;3.21;74.38;98079.72;5061993;28;20244;-71
2021/03/21 12:01:44;;;;;;;9.73;8.83;;;;;;;3.27;73.45;98089.75;5051592;28;20591;-69
2021/03/21 12:04:20;;;;;;;9.07;8.17;;;;;;;3.08;74.56;98078.03;5054588;28;20230;-70
2021/03/21 12:06:49;;;;;;;11.77;9.10;;;;;;;3.05;75.68;98091.34;5051105;28;20207;-71
2021/03/21 12:09:23;;;;;;;12.80;9.63;;;;;;;3.01;76.33;98076.81;5051572;28;20231;-71
2021/03/21 12:11:51;;;;;;;9.73;8.73;;;;;;;3.02;76.42;98075.88;5053557;28;20722;-72
2021/03/21 12:14:25;;;;;;;9.70;8.90;;;;;;;3.15;76.30;98068.75;5044784;28;20276;-70
2021/03/21 12:16:53;;;;;;;11.23;8.97;;;;;;;3.00;76.73;98090.84;5044290;28;21036;-71
2021/03/21 12:19:30;;;;;;;10.27;9.37;;;;;;;3.20;76.50;98068.41;5046673;28;20223;-72
2021/03/21 12:21:59;;;;;;;11.17;9.27;;;;;;;3.14;77.52;98074.13;5045575;28;20210;-71
2021/03/21 12:24:28;;;;;;;8.93;8.03;;;;;;;3.13;78.50;98069.84;5045843;28;20202;-70
2021/03/21 12:27:01;;;;;;;10.17;9.27;;;;;;;3.10;80.74;98076.13;5050351;28;20645;-72
2021/03/21 12:29:40;;;;;;;9.67;8.77;;;;;;;3.08;80.65;98069.34;5045909;28;20233;-70
2021/03/21 12:32:28;;;;;;;9.67;8.80;;;;;;;2.79;81.47;98070.53;5046628;28;20204;-68
2021/03/21 12:34:57;;;;;;;9.87;8.67;;;;;;;2.69;83.12;98077.41;5046605;28;20297;-68
2021/03/21 12:37:26;;;;;;;9.03;8.13;;;;;;;2.74;84.47;98067.44;5047440;28;20234;-68
2021/03/21 12:40:09;;;;;;;10.63;9.53;;;;;;;2.60;86.68;98066.66;5048681;28;20469;-68
2021/03/21 12:42:38;;;;;;;9.80;8.90;;;;;;;2.56;87.91;98064.38;5042102;28;20298;-69
2021/03/21 12:45:09;;;;;;;9.90;8.90;;;;;;;2.41;89.95;98050.63;5045822;28;20283;-69
2021/03/21 12:47:38;;;;;;;13.40;11.40;;;;;;;2.49;90.71;98045.69;5048090;28;20207;-70
2021/03/21 12:50:43;;;;;;;9.37;8.47;;;;;;;2.50;89.76;98049.13;5049305;28;20689;-73
2021/03/21 12:53:12;;;;;;;10.13;8.93;;;;;;;2.70;92.01;98045.06;5022805;28;20215;-73
2021/03/21 12:55:39;;;;;;;9.57;8.77;;;;;;;2.76;92.49;98039.34;5052005;28;20207;-70
2021/03/21 12:58:06;;;;;;;11.77;9.60;;;;;;;2.79;92.75;98033.91;5043890;28;20223;-73
2021/03/21 13:00:34;;;;;;;9.10;8.30;;;;;;;2.75;94.14;98011.53;5045050;28;21099;-71
2021/03/21 13:03:04;;;;;;;10.20;9.23;;;;;;;2.98;94.00;98014.22;5038720;28;20647;-72
2021/03/21 13:05:33;;;;;;;9.07;8.27;;;;;;;3.29;92.70;98017.13;5041867;28;20685;-71
2021/03/21 13:08:01;;;;;;;7.97;7.27;;;;;;;3.27;91.87;98008.56;5046951;28;20745;-71
2021/03/21 13:10:31;;;;;;;9.23;8.40;;;;;;;3.61;90.11;98000.72;5045280;28;20233;-71
2021/03/21 13:12:58;;;;;;;7.80;7.10;;;;;;;3.78;87.33;98002.00;5043839;28;20196;-71
2021/03/21 13:15:26;;;;;;;8.50;7.60;;;;;;;4.27;85.85;98005.13;5040745;28;20221;-72
2021/03/21 13:17:53;;;;;;;8.57;7.77;;;;;;;4.38;83.70;98003.44;5041802;28;20210;-71
2021/03/21 13:20:21;;;;;;;8.00;7.30;;;;;;;4.51;83.30;98011.13;5040145;28;20219;-72
2021/03/21 13:22:48;;;;;;;8.17;7.47;;;;;;;4.47;84.39;98010.56;5042052;28;20318;-72
2021/03/21 13:25:23;;;;;;;6.57;6.07;;;;;;;4.50;82.22;97999.81;5046200;28;20211;-72
2021/03/21 13:27:51;;;;;;;7.73;7.03;;;;;;;4.59;82.39;98001.69;5040454;28;20207;-73
2021/03/21 13:30:20;;;;;;;6.90;6.40;;;;;;;4.69;81.89;97990.41;5045131;28;20238;-73
2021/03/21 13:35:26;;;;;;;7.57;6.90;;;;;;;4.60;80.91;97976.28;5026075;28;20220;-71
2021/03/21 13:37:54;;;;;;;7.10;6.60;;;;;;;4.66;81.15;97985.41;5024827;28;20208;-69
2021/03/21 13:40:24;;;;;;;7.10;6.50;;;;;;;4.62;80.65;97988.28;5028023;28;20200;-68
2021/03/21 13:42:56;;;;;;;7.30;6.70;;;;;;;4.28;81.84;97979.72;5023923;28;20256;-71
2021/03/21 13:45:23;;;;;;;7.63;6.93;;;;;;;4.66;81.81;97970.50;5023055;28;20240;-72
2021/03/21 13:47:50;;;;;;;8.07;7.23;;;;;;;4.39;80.96;97977.06;5025750;28;20207;-70
2021/03/21 13:50:19;;;;;;;7.67;7.07;;;;;;;4.15;81.52;97964.97;5023618;28;20228;-70
2021/03/21 13:52:46;;;;;;;11.00;9.90;;;;;;;4.02;82.78;97964.28;5027758;28;20232;-70
2021/03/21 13:55:19;;;;;;;9.03;8.13;;;;;;;4.10;84.01;97961.06;5019805;28;20591;-70
2021/03/21 13:57:48;;;;;;;8.30;7.60;;;;;;;4.09;83.93;97960.22;5026382;28;20701;-71
2021/03/21 14:00:16;;;;;;;7.77;7.17;;;;;;;4.27;82.94;97964.94;5026247;28;20645;-71
2021/03/21 14:02:43;;;;;;;8.17;7.57;;;;;;;4.13;83.88;97953.78;5028564;28;20214;-70
2021/03/21 14:05:13;;;;;;;8.10;7.40;;;;;;;4.08;83.83;97948.06;5024043;28;20224;-72
2021/03/21 14:07:43;;;;;;;8.67;7.87;;;;;;;4.37;83.32;97950.13;5027937;28;20219;-71
2021/03/21 14:10:12;;;;;;;8.87;7.00;;;;;;;4.38;82.74;97937.84;5017839;28;20588;-69
2021/03/21 14:12:39;;;;;;;8.10;7.40;;;;;;;4.48;82.98;97936.13;5024714;28;20212;-72
2021/03/21 14:15:10;;;;;;;7.30;6.63;;;;;;;4.59;82.27;97935.25;5026845;28;20240;-68
2021/03/21 14:17:37;;;;;;;7.10;6.50;;;;;;;4.34;83.57;97935.44;5018216;28;20204;-71
2021/03/21 14:20:06;;;;;;;7.67;7.07;;;;;;;4.39;83.70;97931.63;5023373;28;21058;-71
2021/03/21 14:22:33;;;;;;;8.50;7.70;;;;;;;4.40;83.74;97930.69;5026671;28;20853;-71
2021/03/21 14:25:00;;;;;;;7.87;7.20;;;;;;;4.32;83.78;97928.69;5027188;28;21243;-72
2021/03/21 14:27:27;;;;;;;7.23;6.70;;;;;;;4.45;83.81;97928.50;5025210;28;20207;-71
2021/03/21 14:29:54;;;;;;;7.87;7.13;;;;;;;4.50;83.29;97931.56;5026074;28;20223;-72
2021/03/21 14:32:22;;;;;;;7.17;6.57;;;;;;;4.61;81.90;97928.88;5024901;28;20620;-71
2021/03/21 14:34:49;;;;;;;7.93;7.23;;;;;;;4.85;81.35;97925.19;5018878;28;20241;-70
2021/03/21 14:37:16;;;;;;;6.73;6.13;;;;;;;5.25;78.75;97928.00;5027512;28;20199;-70
2021/03/21 14:39:45;;;;;;;6.17;5.57;;;;;;;5.08;78.32;97925.00;5032895;28;20212;-70